Punta Gialla — IWUC — position and weather

sailwx.info

Track history (hours):
 
Tides and Currents Weather Stations Pressure Air Temp Water Temp Dewpoint Dewpoint Depression Visibility Wind Speed Wind Dir Waves Ship Positions

Punta Gialla

Last reported at 2014-Aug-01 04:26 UTC. Time now 2014-Aug-01 05:46 UTC.
Position N 44°24' E 008°54'.

Length 52 m; draft 2 m.

Type: Tanker. MMSI: 247077500.

Date/timePositionNaut miles runAvg speedWind from/ knotsBaromVisibWave heightAir tempDewpointWater temp
2014-Aug-01 04:26N 44°24' E 008°54'0 0.0
2014-Aug-01 03:32N 44°24' E 008°54'0 0.0
2014-Aug-01 02:33N 44°24' E 008°54'0 0.0
2014-Aug-01 01:34N 44°24' E 008°54'0 0.0
2014-Aug-01 00:34N 44°24' E 008°54'0 0.0
2014-Jul-31 23:33N 44°24' E 008°54'0 0.0
2014-Jul-31 22:33N 44°24' E 008°54'0 0.0
2014-Jul-31 21:29N 44°24' E 008°54'0 0.0
2014-Jul-31 20:31N 44°24' E 008°54'0 0.0
2014-Jul-31 19:33N 44°24' E 008°54'0 0.0
2014-Jul-31 18:33N 44°24' E 008°54'0 0.0
2014-Jul-31 17:34N 44°24' E 008°54'0 0.0
2014-Jul-31 16:30N 44°24' E 008°54'0 0.0
2014-Jul-31 15:33N 44°24' E 008°54'0 0.0
2014-Jul-31 14:33N 44°24' E 008°54'0 0.0
2014-Jul-31 13:33N 44°24' E 008°54'0 0.0
2014-Jul-31 12:33N 44°24' E 008°54'0 0.0
2014-Jul-31 11:34N 44°24' E 008°54'0 0.0
2014-Jul-31 10:34N 44°24' E 008°54'0 0.0
2014-Jul-31 09:34N 44°24' E 008°54'0 0.0
2014-Jul-31 08:33N 44°24' E 008°54'0 0.4
2014-Jul-31 07:33N 44°24' E 008°55'0 0.0
2014-Jul-31 06:33N 44°24' E 008°55'0 0.5
2014-Jul-31 05:32N 44°24' E 008°54'0 0.2
2014-Jul-31 04:31N 44°24' E 008°54'0 0.0
2014-Jul-31 03:33N 44°24' E 008°54'0 0.0
2014-Jul-31 02:33N 44°24' E 008°54'0 0.0
2014-Jul-31 01:34N 44°24' E 008°54'0 0.0
2014-Jul-31 00:33N 44°24' E 008°54'0 0.0
2014-Jul-30 23:33N 44°24' E 008°54'0 0.0
2014-Jul-30 22:33N 44°24' E 008°54'0 0.0
2014-Jul-30 21:33N 44°24' E 008°54'0 0.0
2014-Jul-30 20:32N 44°24' E 008°54'0 0.0
2014-Jul-30 19:34N 44°24' E 008°54'0 0.0
2014-Jul-30 18:34N 44°24' E 008°54'0 0.0
2014-Jul-30 17:34N 44°24' E 008°54'0 0.0
2014-Jul-30 16:31N 44°24' E 008°54'1 1.1
2014-Jul-30 15:33N 44°24' E 008°53'0 0.0
2014-Jul-30 14:34N 44°24' E 008°53'0 0.0
2014-Jul-30 13:33N 44°24' E 008°53'0 0.0
2014-Jul-30 12:33N 44°24' E 008°53'0 0.0
2014-Jul-30 11:33N 44°24' E 008°53'2 1.5
2014-Jul-30 10:33N 44°24' E 008°55'0 0.0
2014-Jul-30 09:33N 44°24' E 008°55'0 0.0
2014-Jul-30 08:33N 44°24' E 008°55'0 0.0
2014-Jul-30 07:33N 44°24' E 008°55'0 0.0
2014-Jul-30 06:33N 44°24' E 008°55'0 0.0
2014-Jul-30 05:33N 44°24' E 008°55'0 0.0
2014-Jul-30 04:33N 44°24' E 008°55'0 0.0
2014-Jul-30 03:33N 44°24' E 008°55'0 0.0
2014-Jul-30 02:33N 44°24' E 008°55'0 0.0
2014-Jul-30 01:33N 44°24' E 008°55'0 0.0
2014-Jul-30 00:33N 44°24' E 008°55'0 0.0
2014-Jul-29 23:33N 44°24' E 008°55'0 0.2
2014-Jul-29 22:33N 44°24' E 008°55'7 6.8
2014-Jul-29 21:33N 44°21' E 008°46'9 8.9
2014-Jul-29 20:33N 44°18' E 008°35'6 5.9
2014-Jul-29 19:33N 44°16' E 008°27'0 0.0
2014-Jul-29 18:33N 44°16' E 008°27'0 0.0
2014-Jul-29 17:33N 44°16' E 008°27'0 0.0
2014-Jul-29 16:32N 44°16' E 008°27'6 6.1
2014-Jul-29 15:33N 44°17' E 008°35'7 6.6
2014-Jul-29 14:33N 44°20' E 008°44'7 6.6
2014-Jul-29 13:33N 44°23' E 008°52'2 2.2
2014-Jul-29 12:33N 44°24' E 008°54'0 0.0
2014-Jul-29 11:33N 44°24' E 008°54'0 0.0
2014-Jul-29 10:33N 44°24' E 008°54'0 0.0
2014-Jul-29 09:33N 44°24' E 008°54'0 0.0
2014-Jul-29 08:33N 44°24' E 008°54'0 0.0
2014-Jul-29 07:33N 44°24' E 008°54'0 0.0
2014-Jul-29 06:33N 44°24' E 008°54'0 0.0
2014-Jul-29 05:33N 44°24' E 008°54'0 0.0
2014-Jul-29 04:31N 44°24' E 008°54'0 0.0
2014-Jul-29 03:33N 44°24' E 008°54'0 0.0
2014-Jul-29 02:33N 44°24' E 008°54'0 0.0
2014-Jul-29 01:33N 44°24' E 008°54'0 0.0
2014-Jul-29 00:33N 44°24' E 008°54'0 0.0
2014-Jul-28 23:32N 44°24' E 008°54'0 0.0
2014-Jul-28 22:33N 44°24' E 008°54'0 0.0
2014-Jul-28 21:33N 44°24' E 008°54'0 0.0
2014-Jul-28 20:32N 44°24' E 008°54'0 0.0
2014-Jul-28 19:33N 44°24' E 008°54'0 0.0
2014-Jul-28 18:32N 44°24' E 008°54'0 0.0
2014-Jul-28 17:33N 44°24' E 008°54'0 0.0
2014-Jul-28 16:33N 44°24' E 008°54'0 0.1
2014-Jul-28 15:33N 44°24' E 008°54'0 0.0
2014-Jul-28 14:33N 44°24' E 008°54'0 0.0
2014-Jul-28 13:33N 44°24' E 008°54'0 0.0
2014-Jul-28 12:32N 44°24' E 008°54'1 0.9
2014-Jul-28 11:33N 44°25' E 008°55'0 0.0
2014-Jul-28 10:33N 44°25' E 008°55'0 0.0
2014-Jul-28 09:31N 44°25' E 008°55'0 0.0
2014-Jul-28 08:33N 44°25' E 008°55'1 0.9
2014-Jul-28 07:33N 44°24' E 008°54'0 0.1
2014-Jul-28 06:34N 44°24' E 008°54'0 0.0
2014-Jul-28 05:19N 44°24' E 008°54'0 0.0
2014-Jul-28 04:34N 44°24' E 008°54'0 0.0
2014-Jul-28 03:33N 44°24' E 008°54'0 0.0
2014-Jul-28 02:33N 44°24' E 008°54'0 0.0
2014-Jul-28 01:34N 44°24' E 008°54'0 0.0
2014-Jul-28 00:34N 44°24' E 008°54'0 0.0
2014-Jul-27 23:33N 44°24' E 008°54'0 0.0
2014-Jul-27 22:33N 44°24' E 008°54'0 0.0
2014-Jul-27 21:33N 44°24' E 008°54'0 0.0
2014-Jul-27 20:34N 44°24' E 008°54'0 0.0
2014-Jul-27 19:33N 44°24' E 008°54'0 0.0
2014-Jul-27 18:34N 44°24' E 008°54'0 0.0
2014-Jul-27 17:33N 44°24' E 008°54'0 0.0
2014-Jul-27 16:34N 44°24' E 008°54'0 0.0
2014-Jul-27 15:33N 44°24' E 008°54'0 0.0
2014-Jul-27 14:34N 44°24' E 008°54'0 0.0
2014-Jul-27 13:34N 44°24' E 008°54'0 0.0
2014-Jul-27 12:34N 44°24' E 008°54'0 0.0
2014-Jul-27 11:33N 44°24' E 008°54'0 0.0
2014-Jul-27 10:33N 44°24' E 008°54'0 0.0
2014-Jul-27 09:34N 44°24' E 008°54'0 0.0
2014-Jul-27 08:34N 44°24' E 008°54'0 0.0
2014-Jul-27 07:33N 44°24' E 008°54'0 0.0
2014-Jul-27 06:34N 44°24' E 008°54'0 0.0
2014-Jul-27 05:33N 44°24' E 008°54'0 0.0
2014-Jul-27 04:34N 44°24' E 008°54'0 0.0
2014-Jul-27 03:33N 44°24' E 008°54'0 0.0
2014-Jul-27 02:34N 44°24' E 008°54'0 0.0
2014-Jul-27 01:33N 44°24' E 008°54'0 0.0
2014-Jul-27 00:34N 44°24' E 008°54'0 0.0
2014-Jul-26 23:33N 44°24' E 008°54'0 0.0
2014-Jul-26 22:34N 44°24' E 008°54'0 0.0
2014-Jul-26 21:33N 44°24' E 008°54'0 0.0
2014-Jul-26 20:34N 44°24' E 008°54'0 0.0
2014-Jul-26 19:33N 44°24' E 008°54'0 0.0
2014-Jul-26 18:33N 44°24' E 008°54'0 0.0
2014-Jul-26 17:33N 44°24' E 008°54'0 0.0
2014-Jul-26 16:33N 44°24' E 008°54'0 0.0
2014-Jul-26 15:33N 44°24' E 008°54'0 0.0
2014-Jul-26 14:33N 44°24' E 008°54'0 0.0
2014-Jul-26 13:33N 44°24' E 008°54'0 0.0
2014-Jul-26 12:33N 44°24' E 008°54'0 0.0
2014-Jul-26 11:33N 44°24' E 008°54'0 0.0
2014-Jul-26 10:34N 44°24' E 008°54'1 0.7
2014-Jul-26 09:33N 44°25' E 008°55'0 0.0
2014-Jul-26 08:33N 44°25' E 008°55'0 0.0
2014-Jul-26 07:33N 44°25' E 008°55'1 0.9
2014-Jul-26 06:32N 44°24' E 008°55'1 0.5
2014-Jul-26 05:33N 44°24' E 008°54'0 0.0
2014-Jul-26 04:33N 44°24' E 008°54'0 0.0
2014-Jul-26 03:33N 44°24' E 008°54'0 0.0
2014-Jul-26 02:33N 44°24' E 008°54'0 0.0
2014-Jul-26 01:34N 44°24' E 008°54'0 0.0
2014-Jul-26 00:32N 44°24' E 008°54'0 0.0
2014-Jul-25 23:33N 44°24' E 008°54'0 0.0
2014-Jul-25 22:33N 44°24' E 008°54'0 0.0
2014-Jul-25 21:30N 44°24' E 008°54'0 0.0
2014-Jul-25 20:33N 44°24' E 008°54'0 0.0
2014-Jul-25 19:33N 44°24' E 008°54'0 0.0
2014-Jul-25 18:31N 44°24' E 008°54'0 0.0
2014-Jul-25 17:32N 44°24' E 008°54'0 0.5
2014-Jul-25 16:34N 44°24' E 008°55'0 0.0
2014-Jul-25 15:34N 44°24' E 008°55'0 0.0
2014-Jul-25 14:33N 44°24' E 008°55'0 0.0
2014-Jul-25 13:33N 44°24' E 008°55'0 0.0
2014-Jul-25 12:33N 44°24' E 008°55'0 0.0
2014-Jul-25 11:34N 44°24' E 008°55'0 0.0
2014-Jul-25 10:32N 44°24' E 008°55'1 0.7
2014-Jul-25 09:32N 44°25' E 008°55'0 0.2
2014-Jul-25 08:27N 44°25' E 008°55'0 0.2
2014-Jul-25 07:34N 44°25' E 008°55'1 0.7
2014-Jul-25 06:33N 44°24' E 008°55'0 0.2
2014-Jul-25 05:34N 44°24' E 008°55'0 0.0
2014-Jul-25 04:33N 44°24' E 008°55'0 0.0
2014-Jul-25 03:33N 44°24' E 008°55'0 0.0
2014-Jul-25 02:33N 44°24' E 008°55'0 0.0
2014-Jul-25 01:33N 44°24' E 008°55'0 0.0
2014-Jul-25 00:33N 44°24' E 008°55'0 0.0
2014-Jul-24 23:34N 44°24' E 008°55'0 0.0
2014-Jul-24 22:34N 44°24' E 008°55'0 0.0
2014-Jul-24 21:34N 44°24' E 008°55'0 0.0
2014-Jul-24 20:34N 44°24' E 008°55'0 0.0
2014-Jul-24 19:34N 44°24' E 008°55'0 0.5
2014-Jul-24 18:29N 44°24' E 008°55'0 0.1
2014-Jul-24 17:32N 44°25' E 008°55'1 0.6
2014-Jul-24 16:33N 44°24' E 008°55'0 0.0
2014-Jul-24 15:33N 44°24' E 008°55'0 0.0
2014-Jul-24 14:33N 44°24' E 008°55'0 0.0
2014-Jul-24 13:33N 44°24' E 008°55'0 0.0
2014-Jul-24 12:34N 44°24' E 008°55'0 0.5
2014-Jul-24 11:33N 44°24' E 008°54'0 0.0
2014-Jul-24 10:32N 44°24' E 008°54'0 0.0
2014-Jul-24 09:34N 44°24' E 008°54'0 0.0
2014-Jul-24 08:32N 44°24' E 008°54'0 0.0
2014-Jul-24 07:33N 44°24' E 008°54'0 0.0
2014-Jul-24 06:34N 44°24' E 008°54'0 0.0
2014-Jul-24 05:33N 44°24' E 008°54'0 0.0
2014-Jul-24 04:33N 44°24' E 008°54'0 0.0
2014-Jul-24 03:34N 44°24' E 008°54'0 0.0
2014-Jul-24 02:34N 44°24' E 008°54'0 0.0
2014-Jul-24 01:34N 44°24' E 008°54'0 0.0
2014-Jul-24 00:33N 44°24' E 008°54'0 0.0
2014-Jul-23 23:34N 44°24' E 008°54'0 0.0
2014-Jul-23 22:34N 44°24' E 008°54'0 0.0
2014-Jul-23 21:34N 44°24' E 008°54'0 0.0
2014-Jul-23 20:33N 44°24' E 008°54'0 0.0
2014-Jul-23 19:34N 44°24' E 008°54'0 0.0
2014-Jul-23 18:33N 44°24' E 008°54'0 0.0
2014-Jul-23 17:34N 44°24' E 008°54'1 1.4
2014-Jul-23 16:33N 44°24' E 008°52'9 8.6
2014-Jul-23 15:33N 44°20' E 008°42'9 9.3
2014-Jul-23 14:33N 44°16' E 008°30'2 2.4
2014-Jul-23 13:33N 44°16' E 008°27'0 0.0
2014-Jul-23 12:30N 44°16' E 008°27'0 0.1
2014-Jul-23 11:33N 44°16' E 008°27'0 0.0
2014-Jul-23 10:33N 44°16' E 008°27'0 0.0
2014-Jul-23 09:33N 44°16' E 008°27'5 5.1
2014-Jul-23 08:33N 44°16' E 008°34'9 8.9
2014-Jul-23 07:33N 44°20' E 008°45'8 7.3
2014-Jul-23 06:31N 44°24' E 008°54'0 0.4
2014-Jul-23 05:30N 44°24' E 008°54'0 0.0
2014-Jul-23 04:33N 44°24' E 008°54'0 0.0
2014-Jul-23 03:33N 44°24' E 008°54'0 0.0
2014-Jul-23 02:33N 44°24' E 008°54'0 0.0
2014-Jul-23 01:33N 44°24' E 008°54'0 0.0
2014-Jul-23 00:33N 44°24' E 008°54'0 0.0
2014-Jul-22 23:33N 44°24' E 008°54'0 0.0
2014-Jul-22 22:33N 44°24' E 008°54'0 0.0
2014-Jul-22 21:33N 44°24' E 008°54'0 0.0
2014-Jul-22 20:33N 44°24' E 008°54'0 0.0
2014-Jul-22 19:33N 44°24' E 008°54'0 0.0
2014-Jul-22 18:33N 44°24' E 008°54'0 0.0
2014-Jul-22 17:33N 44°24' E 008°54'0 0.0
2014-Jul-22 16:33N 44°24' E 008°54'0 0.0
2014-Jul-22 15:33N 44°24' E 008°54'0 0.0
2014-Jul-22 14:33N 44°24' E 008°54'0 0.0
2014-Jul-22 13:33N 44°24' E 008°54'0 0.0
2014-Jul-22 12:32N 44°24' E 008°54'0 0.4
2014-Jul-22 11:33N 44°24' E 008°55'0 0.0
2014-Jul-22 10:33N 44°24' E 008°55'0 0.0
2014-Jul-22 09:33N 44°24' E 008°55'1 0.7
2014-Jul-22 08:33N 44°24' E 008°54'1 0.8
2014-Jul-22 07:33N 44°24' E 008°53'2 1.5
2014-Jul-22 06:31N 44°24' E 008°55'0 0.1
2014-Jul-22 05:33N 44°24' E 008°55'0 0.0
2014-Jul-22 04:33N 44°24' E 008°55'  
Track history (hours):
 
Tides and Currents Weather Stations Pressure Air Temp Water Temp Dewpoint Dewpoint Depression Visibility Wind Speed Wind Dir Waves Ship Positions

Punta Gialla

Last reported at 2014-Aug-01 04:26 UTC. Time now 2014-Aug-01 05:46 UTC.
Position N 44°24' E 008°54'.

Length 52 m; draft 2 m.

Type: Tanker. MMSI: 247077500.

Date/timePositionNaut miles runAvg speedWind from/ knotsBaromVisibWave heightAir tempDewpointWater temp
2014-Aug-01 04:26N 44°24' E 008°54'0 0.0
2014-Aug-01 03:32N 44°24' E 008°54'0 0.0
2014-Aug-01 02:33N 44°24' E 008°54'0 0.0
2014-Aug-01 01:34N 44°24' E 008°54'0 0.0
2014-Aug-01 00:34N 44°24' E 008°54'0 0.0
2014-Jul-31 23:33N 44°24' E 008°54'0 0.0
2014-Jul-31 22:33N 44°24' E 008°54'0 0.0
2014-Jul-31 21:29N 44°24' E 008°54'0 0.0
2014-Jul-31 20:31N 44°24' E 008°54'0 0.0
2014-Jul-31 19:33N 44°24' E 008°54'0 0.0
2014-Jul-31 18:33N 44°24' E 008°54'0 0.0
2014-Jul-31 17:34N 44°24' E 008°54'0 0.0
2014-Jul-31 16:30N 44°24' E 008°54'0 0.0
2014-Jul-31 15:33N 44°24' E 008°54'0 0.0
2014-Jul-31 14:33N 44°24' E 008°54'0 0.0
2014-Jul-31 13:33N 44°24' E 008°54'0 0.0
2014-Jul-31 12:33N 44°24' E 008°54'0 0.0
2014-Jul-31 11:34N 44°24' E 008°54'0 0.0
2014-Jul-31 10:34N 44°24' E 008°54'0 0.0
2014-Jul-31 09:34N 44°24' E 008°54'0 0.0
2014-Jul-31 08:33N 44°24' E 008°54'0 0.4
2014-Jul-31 07:33N 44°24' E 008°55'0 0.0
2014-Jul-31 06:33N 44°24' E 008°55'0 0.5
2014-Jul-31 05:32N 44°24' E 008°54'0 0.2
2014-Jul-31 04:31N 44°24' E 008°54'0 0.0
2014-Jul-31 03:33N 44°24' E 008°54'0 0.0
2014-Jul-31 02:33N 44°24' E 008°54'0 0.0
2014-Jul-31 01:34N 44°24' E 008°54'0 0.0
2014-Jul-31 00:33N 44°24' E 008°54'0 0.0
2014-Jul-30 23:33N 44°24' E 008°54'0 0.0
2014-Jul-30 22:33N 44°24' E 008°54'0 0.0
2014-Jul-30 21:33N 44°24' E 008°54'0 0.0
2014-Jul-30 20:32N 44°24' E 008°54'0 0.0
2014-Jul-30 19:34N 44°24' E 008°54'0 0.0
2014-Jul-30 18:34N 44°24' E 008°54'0 0.0
2014-Jul-30 17:34N 44°24' E 008°54'0 0.0
2014-Jul-30 16:31N 44°24' E 008°54'1 1.1
2014-Jul-30 15:33N 44°24' E 008°53'0 0.0
2014-Jul-30 14:34N 44°24' E 008°53'0 0.0
2014-Jul-30 13:33N 44°24' E 008°53'0 0.0
2014-Jul-30 12:33N 44°24' E 008°53'0 0.0
2014-Jul-30 11:33N 44°24' E 008°53'2 1.5
2014-Jul-30 10:33N 44°24' E 008°55'0 0.0
2014-Jul-30 09:33N 44°24' E 008°55'0 0.0
2014-Jul-30 08:33N 44°24' E 008°55'0 0.0
2014-Jul-30 07:33N 44°24' E 008°55'0 0.0
2014-Jul-30 06:33N 44°24' E 008°55'0 0.0
2014-Jul-30 05:33N 44°24' E 008°55'0 0.0
2014-Jul-30 04:33N 44°24' E 008°55'0 0.0
2014-Jul-30 03:33N 44°24' E 008°55'0 0.0
2014-Jul-30 02:33N 44°24' E 008°55'0 0.0
2014-Jul-30 01:33N 44°24' E 008°55'0 0.0
2014-Jul-30 00:33N 44°24' E 008°55'0 0.0
2014-Jul-29 23:33N 44°24' E 008°55'0 0.2
2014-Jul-29 22:33N 44°24' E 008°55'7 6.8
2014-Jul-29 21:33N 44°21' E 008°46'9 8.9
2014-Jul-29 20:33N 44°18' E 008°35'6 5.9
2014-Jul-29 19:33N 44°16' E 008°27'0 0.0
2014-Jul-29 18:33N 44°16' E 008°27'0 0.0
2014-Jul-29 17:33N 44°16' E 008°27'0 0.0
2014-Jul-29 16:32N 44°16' E 008°27'6 6.1
2014-Jul-29 15:33N 44°17' E 008°35'7 6.6
2014-Jul-29 14:33N 44°20' E 008°44'7 6.6
2014-Jul-29 13:33N 44°23' E 008°52'2 2.2
2014-Jul-29 12:33N 44°24' E 008°54'0 0.0
2014-Jul-29 11:33N 44°24' E 008°54'0 0.0
2014-Jul-29 10:33N 44°24' E 008°54'0 0.0
2014-Jul-29 09:33N 44°24' E 008°54'0 0.0
2014-Jul-29 08:33N 44°24' E 008°54'0 0.0
2014-Jul-29 07:33N 44°24' E 008°54'0 0.0
2014-Jul-29 06:33N 44°24' E 008°54'0 0.0
2014-Jul-29 05:33N 44°24' E 008°54'0 0.0
2014-Jul-29 04:31N 44°24' E 008°54'0 0.0
2014-Jul-29 03:33N 44°24' E 008°54'0 0.0
2014-Jul-29 02:33N 44°24' E 008°54'0 0.0
2014-Jul-29 01:33N 44°24' E 008°54'0 0.0
2014-Jul-29 00:33N 44°24' E 008°54'0 0.0
2014-Jul-28 23:32N 44°24' E 008°54'0 0.0
2014-Jul-28 22:33N 44°24' E 008°54'0 0.0
2014-Jul-28 21:33N 44°24' E 008°54'0 0.0
2014-Jul-28 20:32N 44°24' E 008°54'0 0.0
2014-Jul-28 19:33N 44°24' E 008°54'0 0.0
2014-Jul-28 18:32N 44°24' E 008°54'0 0.0
2014-Jul-28 17:33N 44°24' E 008°54'0 0.0
2014-Jul-28 16:33N 44°24' E 008°54'0 0.1
2014-Jul-28 15:33N 44°24' E 008°54'0 0.0
2014-Jul-28 14:33N 44°24' E 008°54'0 0.0
2014-Jul-28 13:33N 44°24' E 008°54'0 0.0
2014-Jul-28 12:32N 44°24' E 008°54'1 0.9
2014-Jul-28 11:33N 44°25' E 008°55'0 0.0
2014-Jul-28 10:33N 44°25' E 008°55'0 0.0
2014-Jul-28 09:31N 44°25' E 008°55'0 0.0
2014-Jul-28 08:33N 44°25' E 008°55'1 0.9
2014-Jul-28 07:33N 44°24' E 008°54'0 0.1
2014-Jul-28 06:34N 44°24' E 008°54'0 0.0
2014-Jul-28 05:19N 44°24' E 008°54'0 0.0
2014-Jul-28 04:34N 44°24' E 008°54'0 0.0
2014-Jul-28 03:33N 44°24' E 008°54'0 0.0
2014-Jul-28 02:33N 44°24' E 008°54'0 0.0
2014-Jul-28 01:34N 44°24' E 008°54'0 0.0
2014-Jul-28 00:34N 44°24' E 008°54'0 0.0
2014-Jul-27 23:33N 44°24' E 008°54'0 0.0
2014-Jul-27 22:33N 44°24' E 008°54'0 0.0
2014-Jul-27 21:33N 44°24' E 008°54'0 0.0
2014-Jul-27 20:34N 44°24' E 008°54'0 0.0
2014-Jul-27 19:33N 44°24' E 008°54'0 0.0
2014-Jul-27 18:34N 44°24' E 008°54'0 0.0
2014-Jul-27 17:33N 44°24' E 008°54'0 0.0
2014-Jul-27 16:34N 44°24' E 008°54'0 0.0
2014-Jul-27 15:33N 44°24' E 008°54'0 0.0
2014-Jul-27 14:34N 44°24' E 008°54'0 0.0
2014-Jul-27 13:34N 44°24' E 008°54'0 0.0
2014-Jul-27 12:34N 44°24' E 008°54'0 0.0
2014-Jul-27 11:33N 44°24' E 008°54'0 0.0
2014-Jul-27 10:33N 44°24' E 008°54'0 0.0
2014-Jul-27 09:34N 44°24' E 008°54'0 0.0
2014-Jul-27 08:34N 44°24' E 008°54'0 0.0
2014-Jul-27 07:33N 44°24' E 008°54'0 0.0
2014-Jul-27 06:34N 44°24' E 008°54'0 0.0
2014-Jul-27 05:33N 44°24' E 008°54'0 0.0
2014-Jul-27 04:34N 44°24' E 008°54'0 0.0
2014-Jul-27 03:33N 44°24' E 008°54'0 0.0
2014-Jul-27 02:34N 44°24' E 008°54'0 0.0
2014-Jul-27 01:33N 44°24' E 008°54'0 0.0
2014-Jul-27 00:34N 44°24' E 008°54'0 0.0
2014-Jul-26 23:33N 44°24' E 008°54'0 0.0
2014-Jul-26 22:34N 44°24' E 008°54'0 0.0
2014-Jul-26 21:33N 44°24' E 008°54'0 0.0
2014-Jul-26 20:34N 44°24' E 008°54'0 0.0
2014-Jul-26 19:33N 44°24' E 008°54'0 0.0
2014-Jul-26 18:33N 44°24' E 008°54'0 0.0
2014-Jul-26 17:33N 44°24' E 008°54'0 0.0
2014-Jul-26 16:33N 44°24' E 008°54'0 0.0
2014-Jul-26 15:33N 44°24' E 008°54'0 0.0
2014-Jul-26 14:33N 44°24' E 008°54'0 0.0
2014-Jul-26 13:33N 44°24' E 008°54'0 0.0
2014-Jul-26 12:33N 44°24' E 008°54'0 0.0
2014-Jul-26 11:33N 44°24' E 008°54'0 0.0
2014-Jul-26 10:34N 44°24' E 008°54'1 0.7
2014-Jul-26 09:33N 44°25' E 008°55'0 0.0
2014-Jul-26 08:33N 44°25' E 008°55'0 0.0
2014-Jul-26 07:33N 44°25' E 008°55'1 0.9
2014-Jul-26 06:32N 44°24' E 008°55'1 0.5
2014-Jul-26 05:33N 44°24' E 008°54'0 0.0
2014-Jul-26 04:33N 44°24' E 008°54'0 0.0
2014-Jul-26 03:33N 44°24' E 008°54'0 0.0
2014-Jul-26 02:33N 44°24' E 008°54'0 0.0
2014-Jul-26 01:34N 44°24' E 008°54'0 0.0
2014-Jul-26 00:32N 44°24' E 008°54'0 0.0
2014-Jul-25 23:33N 44°24' E 008°54'0 0.0
2014-Jul-25 22:33N 44°24' E 008°54'0 0.0
2014-Jul-25 21:30N 44°24' E 008°54'0 0.0
2014-Jul-25 20:33N 44°24' E 008°54'0 0.0
2014-Jul-25 19:33N 44°24' E 008°54'0 0.0
2014-Jul-25 18:31N 44°24' E 008°54'0 0.0
2014-Jul-25 17:32N 44°24' E 008°54'0 0.5
2014-Jul-25 16:34N 44°24' E 008°55'0 0.0
2014-Jul-25 15:34N 44°24' E 008°55'0 0.0
2014-Jul-25 14:33N 44°24' E 008°55'0 0.0
2014-Jul-25 13:33N 44°24' E 008°55'0 0.0
2014-Jul-25 12:33N 44°24' E 008°55'0 0.0
2014-Jul-25 11:34N 44°24' E 008°55'0 0.0
2014-Jul-25 10:32N 44°24' E 008°55'1 0.7
2014-Jul-25 09:32N 44°25' E 008°55'0 0.2
2014-Jul-25 08:27N 44°25' E 008°55'0 0.2
2014-Jul-25 07:34N 44°25' E 008°55'1 0.7
2014-Jul-25 06:33N 44°24' E 008°55'0 0.2
2014-Jul-25 05:34N 44°24' E 008°55'0 0.0
2014-Jul-25 04:33N 44°24' E 008°55'0 0.0
2014-Jul-25 03:33N 44°24' E 008°55'0 0.0
2014-Jul-25 02:33N 44°24' E 008°55'0 0.0
2014-Jul-25 01:33N 44°24' E 008°55'0 0.0
2014-Jul-25 00:33N 44°24' E 008°55'0 0.0
2014-Jul-24 23:34N 44°24' E 008°55'0 0.0
2014-Jul-24 22:34N 44°24' E 008°55'0 0.0
2014-Jul-24 21:34N 44°24' E 008°55'0 0.0
2014-Jul-24 20:34N 44°24' E 008°55'0 0.0
2014-Jul-24 19:34N 44°24' E 008°55'0 0.5
2014-Jul-24 18:29N 44°24' E 008°55'0 0.1
2014-Jul-24 17:32N 44°25' E 008°55'1 0.6
2014-Jul-24 16:33N 44°24' E 008°55'0 0.0
2014-Jul-24 15:33N 44°24' E 008°55'0 0.0
2014-Jul-24 14:33N 44°24' E 008°55'0 0.0
2014-Jul-24 13:33N 44°24' E 008°55'0 0.0
2014-Jul-24 12:34N 44°24' E 008°55'0 0.5
2014-Jul-24 11:33N 44°24' E 008°54'0 0.0
2014-Jul-24 10:32N 44°24' E 008°54'0 0.0
2014-Jul-24 09:34N 44°24' E 008°54'0 0.0
2014-Jul-24 08:32N 44°24' E 008°54'0 0.0
2014-Jul-24 07:33N 44°24' E 008°54'0 0.0
2014-Jul-24 06:34N 44°24' E 008°54'0 0.0
2014-Jul-24 05:33N 44°24' E 008°54'0 0.0
2014-Jul-24 04:33N 44°24' E 008°54'0 0.0
2014-Jul-24 03:34N 44°24' E 008°54'0 0.0
2014-Jul-24 02:34N 44°24' E 008°54'0 0.0
2014-Jul-24 01:34N 44°24' E 008°54'0 0.0
2014-Jul-24 00:33N 44°24' E 008°54'0 0.0
2014-Jul-23 23:34N 44°24' E 008°54'0 0.0
2014-Jul-23 22:34N 44°24' E 008°54'0 0.0
2014-Jul-23 21:34N 44°24' E 008°54'0 0.0
2014-Jul-23 20:33N 44°24' E 008°54'0 0.0
2014-Jul-23 19:34N 44°24' E 008°54'0 0.0
2014-Jul-23 18:33N 44°24' E 008°54'0 0.0
2014-Jul-23 17:34N 44°24' E 008°54'1 1.4
2014-Jul-23 16:33N 44°24' E 008°52'9 8.6
2014-Jul-23 15:33N 44°20' E 008°42'9 9.3
2014-Jul-23 14:33N 44°16' E 008°30'2 2.4
2014-Jul-23 13:33N 44°16' E 008°27'0 0.0
2014-Jul-23 12:30N 44°16' E 008°27'0 0.1
2014-Jul-23 11:33N 44°16' E 008°27'0 0.0
2014-Jul-23 10:33N 44°16' E 008°27'0 0.0
2014-Jul-23 09:33N 44°16' E 008°27'5 5.1
2014-Jul-23 08:33N 44°16' E 008°34'9 8.9
2014-Jul-23 07:33N 44°20' E 008°45'8 7.3
2014-Jul-23 06:31N 44°24' E 008°54'0 0.4
2014-Jul-23 05:30N 44°24' E 008°54'0 0.0
2014-Jul-23 04:33N 44°24' E 008°54'0 0.0
2014-Jul-23 03:33N 44°24' E 008°54'0 0.0
2014-Jul-23 02:33N 44°24' E 008°54'0 0.0
2014-Jul-23 01:33N 44°24' E 008°54'0 0.0
2014-Jul-23 00:33N 44°24' E 008°54'0 0.0
2014-Jul-22 23:33N 44°24' E 008°54'0 0.0
2014-Jul-22 22:33N 44°24' E 008°54'0 0.0
2014-Jul-22 21:33N 44°24' E 008°54'0 0.0
2014-Jul-22 20:33N 44°24' E 008°54'0 0.0
2014-Jul-22 19:33N 44°24' E 008°54'0 0.0
2014-Jul-22 18:33N 44°24' E 008°54'0 0.0
2014-Jul-22 17:33N 44°24' E 008°54'0 0.0
2014-Jul-22 16:33N 44°24' E 008°54'0 0.0
2014-Jul-22 15:33N 44°24' E 008°54'0 0.0
2014-Jul-22 14:33N 44°24' E 008°54'0 0.0
2014-Jul-22 13:33N 44°24' E 008°54'0 0.0
2014-Jul-22 12:32N 44°24' E 008°54'0 0.4
2014-Jul-22 11:33N 44°24' E 008°55'0 0.0
2014-Jul-22 10:33N 44°24' E 008°55'0 0.0
2014-Jul-22 09:33N 44°24' E 008°55'1 0.7
2014-Jul-22 08:33N 44°24' E 008°54'1 0.8
2014-Jul-22 07:33N 44°24' E 008°53'2 1.5
2014-Jul-22 06:31N 44°24' E 008°55'0 0.1
2014-Jul-22 05:33N 44°24' E 008°55'0 0.0
2014-Jul-22 04:33N 44°24' E 008°55'  

Dump ship's entire track history